createdAt,value
2023-05-13T00:02:01.260Z,45.67
2023-05-13T00:05:03.965Z,55.67
2023-05-13T00:08:09.548Z,49.00
2023-05-13T00:11:12.230Z,50.33
2023-05-13T00:14:14.968Z,46.33
2023-05-13T00:17:18.236Z,55.00
2023-05-13T00:20:21.126Z,51.33
2023-05-13T00:23:23.998Z,46.67
2023-05-13T00:26:26.300Z,51.00
2023-05-13T00:29:29.148Z,40.33
2023-05-13T00:32:32.948Z,53.67
2023-05-13T00:35:35.976Z,43.67
2023-05-13T00:38:38.793Z,52.67
2023-05-13T00:41:41.504Z,48.67
2023-05-13T00:44:43.916Z,54.67
2023-05-13T00:47:46.942Z,52.00
2023-05-13T00:50:49.801Z,54.00
2023-05-13T00:53:52.681Z,23.67
2023-05-13T00:56:58.015Z,48.67
2023-05-13T01:00:01.340Z,51.00
2023-05-13T01:03:07.206Z,51.33
2023-05-13T01:06:53.554Z,54.33
2023-05-13T01:10:33.719Z,52.67
2023-05-13T01:13:43.585Z,50.67
2023-05-13T01:17:18.281Z,50.33
2023-05-13T01:20:22.836Z,51.67
2023-05-13T01:23:25.738Z,52.33
2023-05-13T01:26:28.987Z,51.33
2023-05-13T01:29:32.287Z,45.67
2023-05-13T01:32:36.666Z,49.33
2023-05-13T01:35:39.361Z,52.33
2023-05-13T01:38:43.985Z,48.00
2023-05-13T01:41:48.305Z,45.00
2023-05-13T01:44:54.022Z,48.33
2023-05-13T01:47:56.956Z,50.67
2023-05-13T01:51:01.140Z,51.33
2023-05-13T01:54:05.392Z,51.67
2023-05-13T01:57:11.052Z,55.33
2023-05-13T02:00:14.547Z,51.67
2023-05-13T02:03:17.458Z,52.33
2023-05-13T02:06:21.226Z,48.67
2023-05-13T02:09:24.996Z,49.33
2023-05-13T02:12:27.690Z,44.00
2023-05-13T02:15:30.507Z,44.33
2023-05-13T02:18:32.940Z,54.00
2023-05-13T02:21:35.627Z,49.00
2023-05-13T02:24:40.580Z,21.00
2023-05-13T02:27:44.291Z,49.33
2023-05-13T02:30:46.684Z,42.33
2023-05-13T02:33:49.940Z,45.00
2023-05-13T02:36:53.005Z,58.00
2023-05-13T02:39:55.928Z,54.67
2023-05-13T02:42:58.558Z,45.00
2023-05-13T02:46:14.566Z,43.00
2023-05-13T02:49:16.984Z,51.33
2023-05-13T02:52:20.668Z,49.33
2023-05-13T02:55:23.104Z,42.33
2023-05-13T02:58:26.050Z,46.33
2023-05-13T03:01:29.194Z,52.00
2023-05-13T03:04:31.993Z,48.33
2023-05-13T03:07:34.826Z,43.33
2023-05-13T03:10:37.434Z,50.33
2023-05-13T03:13:39.785Z,44.67
2023-05-13T03:16:42.503Z,43.33
2023-05-13T03:19:44.959Z,49.33
2023-05-13T03:22:47.826Z,57.00
2023-05-13T03:25:51.355Z,48.33
2023-05-13T03:28:54.256Z,49.00
2023-05-13T03:31:57.561Z,48.33
2023-05-13T03:35:01.574Z,51.67
2023-05-13T03:38:05.791Z,47.67
2023-05-13T03:41:11.710Z,49.33
2023-05-13T03:44:14.384Z,48.00
2023-05-13T03:47:17.147Z,48.33
2023-05-13T03:50:21.500Z,46.33
2023-05-13T03:53:24.480Z,51.33
2023-05-13T03:56:28.961Z,54.67
2023-05-13T03:59:31.761Z,48.00
2023-05-13T04:02:34.534Z,43.33
2023-05-13T04:05:37.466Z,56.33
2023-05-13T04:08:39.864Z,52.67
2023-05-13T04:11:42.626Z,49.00
2023-05-13T04:14:44.999Z,46.67
2023-05-13T04:17:49.085Z,22.67
2023-05-13T04:20:51.618Z,48.00
2023-05-13T04:23:54.279Z,50.33
2023-05-13T04:26:58.992Z,45.00
2023-05-13T04:30:05.495Z,52.00
2023-05-13T04:33:09.898Z,45.33
2023-05-13T04:36:17.107Z,45.67
2023-05-13T04:39:19.739Z,55.33
2023-05-13T04:42:22.733Z,53.33
2023-05-13T04:45:25.258Z,37.00
2023-05-13T04:48:28.408Z,47.67
2023-05-13T04:51:33.290Z,47.33
2023-05-13T04:54:38.693Z,46.67
2023-05-13T04:57:41.922Z,53.00
2023-05-13T05:00:46.047Z,58.33
2023-05-13T05:03:48.820Z,46.67
2023-05-13T05:06:51.747Z,51.00
2023-05-13T05:09:54.260Z,50.67
2023-05-13T05:12:58.364Z,45.00
2023-05-13T05:16:00.848Z,52.67
2023-05-13T05:19:05.762Z,43.33
2023-05-13T05:22:08.383Z,50.33
2023-05-13T05:25:11.916Z,40.00
2023-05-13T05:28:14.777Z,39.67
2023-05-13T05:31:19.202Z,48.00
2023-05-13T05:34:21.687Z,39.00
2023-05-13T05:37:25.048Z,43.00
2023-05-13T05:40:27.454Z,42.67
2023-05-13T05:43:30.868Z,48.67
2023-05-13T05:46:34.506Z,42.25
2023-05-13T05:49:38.035Z,42.75
2023-05-13T05:52:40.581Z,41.25
2023-05-13T05:55:43.452Z,42.50
2023-05-13T05:58:45.818Z,38.25
2023-05-13T06:01:49.179Z,41.50
2023-05-13T06:04:51.877Z,36.25
2023-05-13T06:07:55.950Z,35.50
2023-05-13T06:10:59.211Z,29.50
2023-05-13T06:14:02.593Z,34.25
2023-05-13T06:17:05.301Z,32.00
2023-05-13T06:20:08.724Z,30.00
2023-05-13T06:23:11.723Z,34.75
2023-05-13T06:26:14.551Z,34.25
2023-05-13T06:29:17.272Z,32.50
2023-05-13T06:32:21.103Z,29.50
2023-05-13T06:35:23.866Z,29.25
2023-05-13T06:38:26.746Z,25.50
2023-05-13T06:41:35.996Z,25.00
2023-05-13T06:44:45.010Z,23.00
2023-05-13T06:47:47.734Z,23.50
2023-05-13T06:50:51.496Z,23.25
2023-05-13T06:53:54.590Z,25.00
2023-05-13T06:57:29.655Z,21.75
2023-05-13T07:00:51.799Z,22.75
2023-05-13T07:03:54.442Z,19.75
2023-05-13T07:06:57.985Z,19.50
2023-05-13T07:10:00.543Z,20.75
2023-05-13T07:13:03.432Z,22.75
2023-05-13T07:16:06.262Z,22.50
2023-05-13T07:19:10.156Z,17.00
2023-05-13T07:22:13.185Z,16.67
2023-05-13T07:25:16.144Z,22.67
2023-05-13T07:28:21.995Z,18.67
2023-05-13T07:31:24.982Z,18.67
2023-05-13T07:34:27.600Z,21.00
2023-05-13T07:37:30.497Z,17.33
2023-05-13T07:40:33.041Z,12.00
2023-05-13T07:43:35.851Z,19.00
2023-05-13T07:46:38.360Z,17.33
2023-05-13T07:49:41.199Z,17.33
2023-05-13T07:52:44.840Z,17.33
2023-05-13T07:56:04.534Z,18.00
2023-05-13T07:59:07.461Z,16.00
2023-05-13T08:02:10.115Z,15.00
2023-05-13T08:05:19.000Z,17.33
2023-05-13T08:08:21.422Z,14.67
2023-05-13T08:11:24.791Z,15.67
2023-05-13T08:14:27.823Z,13.33
2023-05-13T08:17:31.401Z,15.00
2023-05-13T08:20:34.564Z,15.33
2023-05-13T08:23:45.302Z,13.00
2023-05-13T08:26:48.603Z,14.33
2023-05-13T08:29:51.483Z,15.00
2023-05-13T08:32:59.198Z,18.00
2023-05-13T08:36:02.866Z,12.00
2023-05-13T08:39:08.114Z,12.00
2023-05-13T08:42:12.126Z,13.33
2023-05-13T08:45:15.363Z,13.00
2023-05-13T08:48:19.215Z,15.00
2023-05-13T08:51:22.247Z,14.00
2023-05-13T08:54:26.263Z,12.33
2023-05-13T08:57:28.736Z,13.67
2023-05-13T09:00:32.182Z,15.67
2023-05-13T09:03:35.528Z,8.00
2023-05-13T09:06:38.298Z,9.00
2023-05-13T09:09:41.154Z,11.00
2023-05-13T09:12:52.771Z,10.67
2023-05-13T09:15:55.365Z,12.00
2023-05-13T09:19:06.241Z,10.00
2023-05-13T09:22:17.842Z,9.67
2023-05-13T09:25:24.838Z,14.33
2023-05-13T09:28:28.873Z,9.00
2023-05-13T09:31:34.909Z,9.67
2023-05-13T09:34:37.510Z,8.67
2023-05-13T09:37:40.287Z,11.33
2023-05-13T09:40:51.005Z,13.00
2023-05-13T09:43:53.994Z,9.67
2023-05-13T09:46:56.705Z,13.33
2023-05-13T09:50:10.101Z,11.33
2023-05-13T09:53:12.703Z,12.00
2023-05-13T09:56:22.342Z,10.67
2023-05-13T09:59:28.557Z,11.00
2023-05-13T10:02:33.194Z,14.00
2023-05-13T10:05:42.347Z,10.00
2023-05-13T10:08:50.877Z,12.00
2023-05-13T10:11:53.672Z,9.00
2023-05-13T10:14:57.202Z,9.67
2023-05-13T10:18:00.370Z,10.00
2023-05-13T10:21:04.087Z,10.67
2023-05-13T10:24:08.285Z,6.67
2023-05-13T10:27:12.086Z,9.33
2023-05-13T10:30:15.155Z,8.33
2023-05-13T10:33:18.570Z,8.33
2023-05-13T10:36:45.964Z,9.67
2023-05-13T10:40:18.147Z,8.67
2023-05-13T10:43:22.582Z,13.33
2023-05-13T10:46:26.015Z,21.00
2023-05-13T10:49:36.119Z,15.00
2023-05-13T10:52:43.764Z,9.67
2023-05-13T10:55:47.097Z,16.33
2023-05-13T10:59:06.677Z,15.67
2023-05-13T11:02:25.382Z,10.67
2023-05-13T11:05:29.322Z,8.67
2023-05-13T11:08:40.484Z,14.00
2023-05-13T11:11:48.463Z,9.33
2023-05-13T11:14:56.222Z,9.67
2023-05-13T11:17:59.280Z,9.67
2023-05-13T11:21:07.685Z,9.00
2023-05-13T11:24:10.672Z,10.00
2023-05-13T11:27:21.251Z,9.00
2023-05-13T11:30:26.615Z,9.33
2023-05-13T11:34:08.127Z,9.00
2023-05-13T11:37:11.692Z,8.33
2023-05-13T11:40:25.434Z,15.00
2023-05-13T11:43:28.399Z,8.33
2023-05-13T11:46:31.121Z,7.33
2023-05-13T11:49:39.650Z,6.00
2023-05-13T11:52:42.265Z,9.33
2023-05-13T11:55:45.118Z,9.00
2023-05-13T11:58:47.701Z,8.67
2023-05-13T12:02:01.741Z,8.33
2023-05-13T12:05:09.466Z,8.67
2023-05-13T12:08:12.465Z,8.67
2023-05-13T12:11:15.378Z,8.33
2023-05-13T12:14:18.704Z,10.67
2023-05-13T12:17:22.354Z,8.67
2023-05-13T12:20:26.865Z,8.00
2023-05-13T12:23:40.170Z,8.67
2023-05-13T12:26:43.129Z,8.00
2023-05-13T12:29:45.569Z,8.00
2023-05-13T12:32:48.429Z,12.00
2023-05-13T12:35:53.375Z,7.67
2023-05-13T12:39:12.614Z,10.33
2023-05-13T12:42:17.576Z,9.00
2023-05-13T12:45:22.014Z,7.00
2023-05-13T12:48:26.095Z,8.67
2023-05-13T12:51:30.063Z,7.67
2023-05-13T12:54:32.661Z,7.00
2023-05-13T12:57:35.577Z,7.33
2023-05-13T13:00:39.079Z,6.67
2023-05-13T13:03:43.637Z,8.33
2023-05-13T13:06:49.649Z,8.00
2023-05-13T13:09:53.121Z,9.00
2023-05-13T13:12:55.615Z,8.67
2023-05-13T13:15:58.981Z,7.00
2023-05-13T13:19:02.129Z,6.33
2023-05-13T13:22:05.307Z,8.00
2023-05-13T13:25:08.271Z,8.00
2023-05-13T13:28:11.543Z,4.33
2023-05-13T13:31:14.105Z,6.67
2023-05-13T13:34:16.847Z,7.67
2023-05-13T13:37:19.354Z,6.67
2023-05-13T13:40:24.265Z,6.33
2023-05-13T13:43:28.143Z,8.00
2023-05-13T13:46:33.672Z,7.67
2023-05-13T13:49:36.402Z,7.00
2023-05-13T13:52:39.354Z,7.67
2023-05-13T13:55:41.887Z,7.00
2023-05-13T13:58:44.728Z,6.67
2023-05-13T14:01:47.357Z,5.67
2023-05-13T14:04:52.012Z,4.67
2023-05-13T14:07:56.018Z,8.00
2023-05-13T14:10:59.313Z,7.00
2023-05-13T14:14:01.780Z,6.33
2023-05-13T14:17:04.687Z,10.67
2023-05-13T14:20:10.738Z,5.33
2023-05-13T14:23:14.382Z,9.00
2023-05-13T14:26:16.961Z,6.67
2023-05-13T14:29:21.298Z,6.00
2023-05-13T14:32:24.048Z,7.67
2023-05-13T14:35:27.332Z,7.00
2023-05-13T14:38:29.912Z,7.00
2023-05-13T14:41:33.848Z,10.00
2023-05-13T14:44:36.942Z,8.00
2023-05-13T14:47:40.130Z,6.67
2023-05-13T14:50:43.626Z,6.67
2023-05-13T14:53:47.476Z,6.00
2023-05-13T14:56:51.527Z,6.00
2023-05-13T14:59:54.451Z,8.00
2023-05-13T15:02:57.151Z,5.33
2023-05-13T15:06:00.177Z,6.00
2023-05-13T15:09:03.021Z,8.00
2023-05-13T15:12:06.898Z,6.67
2023-05-13T15:15:10.369Z,6.00
2023-05-13T15:18:14.158Z,6.00
2023-05-13T15:21:17.200Z,7.00
2023-05-13T15:24:20.058Z,6.00
2023-05-13T15:27:22.509Z,8.67
2023-05-13T15:30:25.338Z,6.00
2023-05-13T15:33:27.810Z,7.67
2023-05-13T15:36:31.366Z,9.33
2023-05-13T15:39:34.209Z,9.33
2023-05-13T15:42:37.192Z,9.33
2023-05-13T15:45:43.340Z,8.00
2023-05-13T15:48:46.631Z,9.00
2023-05-13T15:51:50.575Z,7.67
2023-05-13T15:54:53.462Z,6.00
2023-05-13T15:57:56.083Z,7.00
2023-05-13T16:00:59.286Z,7.00
2023-05-13T16:04:02.023Z,7.00
2023-05-13T16:07:07.506Z,9.00
2023-05-13T16:10:10.276Z,7.00
2023-05-13T16:13:13.228Z,7.00
2023-05-13T16:16:15.991Z,6.00
2023-05-13T16:19:19.031Z,6.00
2023-05-13T16:22:31.364Z,7.00
2023-05-13T16:25:34.779Z,6.00
2023-05-13T16:28:37.471Z,7.67
2023-05-13T16:31:40.326Z,6.00
2023-05-13T16:34:42.980Z,8.00
2023-05-13T16:37:47.397Z,8.00
2023-05-13T16:40:49.932Z,8.00
2023-05-13T16:43:52.740Z,8.67
2023-05-13T16:46:55.383Z,10.00
2023-05-13T16:49:58.619Z,10.00
2023-05-13T16:53:01.235Z,7.33
2023-05-13T16:56:04.318Z,8.67
2023-05-13T16:59:09.188Z,9.67
2023-05-13T17:02:12.350Z,7.00
2023-05-13T17:05:14.995Z,8.67
2023-05-13T17:08:19.159Z,8.00
2023-05-13T17:11:22.510Z,8.00
2023-05-13T17:14:25.749Z,11.00
2023-05-13T17:17:28.290Z,7.00
2023-05-13T17:20:31.161Z,7.00
2023-05-13T17:23:33.663Z,7.67
2023-05-13T17:26:38.622Z,8.67
2023-05-13T17:29:41.584Z,8.00
2023-05-13T17:32:44.470Z,8.33
2023-05-13T17:35:47.169Z,10.00
2023-05-13T17:38:50.518Z,10.00
2023-05-13T17:41:52.990Z,7.67
2023-05-13T17:44:55.917Z,8.50
2023-05-13T17:47:58.641Z,8.75
2023-05-13T17:51:01.493Z,9.00
2023-05-13T17:54:04.260Z,6.75
2023-05-13T17:57:07.192Z,10.00
2023-05-13T18:00:10.333Z,8.75
2023-05-13T18:03:13.165Z,10.00
2023-05-13T18:06:16.255Z,11.50
2023-05-13T18:09:20.140Z,8.00
2023-05-13T18:12:22.858Z,8.50
2023-05-13T18:15:25.715Z,9.00
2023-05-13T18:18:28.360Z,10.75
2023-05-13T18:21:32.392Z,9.25
2023-05-13T18:24:35.748Z,10.00
2023-05-13T18:27:38.769Z,15.00
2023-05-13T18:30:41.238Z,93.75
2023-05-13T18:37:06.323Z,33.00
2023-05-13T18:40:09.773Z,44.25
2023-05-13T18:43:12.526Z,17.75
2023-05-13T18:46:15.957Z,31.25
2023-05-13T18:49:19.742Z,20.25
2023-05-13T18:52:22.738Z,15.00
2023-05-13T18:55:25.380Z,38.75
2023-05-13T18:58:28.792Z,19.00
2023-05-13T19:01:31.373Z,19.00
2023-05-13T19:04:35.090Z,15.50
2023-05-13T19:07:37.696Z,14.75
2023-05-13T19:10:41.685Z,14.25
2023-05-13T19:13:47.498Z,13.50
2023-05-13T19:16:51.089Z,18.25
2023-05-13T19:19:53.908Z,15.00
2023-05-13T19:22:57.396Z,16.00
2023-05-13T19:26:00.397Z,14.75
2023-05-13T19:29:06.947Z,13.25
2023-05-13T19:32:10.399Z,15.75
2023-05-13T19:35:14.125Z,14.50
2023-05-13T19:38:17.192Z,6.25
2023-05-13T19:41:20.507Z,12.25
2023-05-13T19:44:24.040Z,14.00
2023-05-13T19:47:27.476Z,16.50
2023-05-13T19:50:30.060Z,15.50
2023-05-13T19:53:33.718Z,16.00
2023-05-13T19:56:38.602Z,18.25
2023-05-13T19:59:42.649Z,16.00
2023-05-13T20:02:45.382Z,16.25
2023-05-13T20:05:49.317Z,19.00
2023-05-13T20:08:52.209Z,18.25
2023-05-13T20:11:55.433Z,18.75
2023-05-13T20:14:59.085Z,23.50
2023-05-13T20:18:02.135Z,16.50
2023-05-13T20:21:05.003Z,17.75
2023-05-13T20:24:08.043Z,20.25
2023-05-13T20:27:11.007Z,18.25
2023-05-13T20:30:14.392Z,21.25
2023-05-13T20:33:18.482Z,25.00
2023-05-13T20:36:22.405Z,23.75
2023-05-13T20:39:25.640Z,25.50
2023-05-13T20:42:29.842Z,29.75
2023-05-13T20:45:32.321Z,30.00
2023-05-13T20:48:35.633Z,27.50
2023-05-13T20:51:39.212Z,31.50
2023-05-13T20:54:42.242Z,31.50
2023-05-13T20:57:44.862Z,31.00
2023-05-13T21:00:47.818Z,34.00
2023-05-13T21:03:50.587Z,31.50
2023-05-13T21:06:53.466Z,32.50
2023-05-13T21:09:56.058Z,33.00
2023-05-13T21:12:58.986Z,39.00
2023-05-13T21:16:04.960Z,30.50
2023-05-13T21:19:18.682Z,36.75
2023-05-13T21:22:21.206Z,37.75
2023-05-13T21:25:24.065Z,36.50
2023-05-13T21:28:26.494Z,45.00
2023-05-13T21:31:29.608Z,39.75
2023-05-13T21:34:32.208Z,32.75
2023-05-13T21:37:34.980Z,37.25
2023-05-13T21:40:38.532Z,42.25
2023-05-13T21:43:41.566Z,38.75
2023-05-13T21:46:44.085Z,40.25
2023-05-13T21:49:47.052Z,46.50
2023-05-13T21:52:49.644Z,41.25
2023-05-13T21:55:53.810Z,42.00
2023-05-13T21:58:56.245Z,37.25
2023-05-13T22:01:59.052Z,41.25
2023-05-13T22:05:01.483Z,43.25
2023-05-13T22:08:04.669Z,48.75
2023-05-13T22:11:07.689Z,45.00
2023-05-13T22:14:10.465Z,46.67
2023-05-13T22:17:12.971Z,42.67
2023-05-13T22:20:16.066Z,43.33
2023-05-13T22:23:18.549Z,45.33
2023-05-13T22:26:22.105Z,46.67
2023-05-13T22:29:24.768Z,50.67
2023-05-13T22:32:27.659Z,47.33
2023-05-13T22:35:30.368Z,52.67
2023-05-13T22:38:33.080Z,47.00
2023-05-13T22:41:35.887Z,56.00
2023-05-13T22:44:39.015Z,55.00
2023-05-13T22:47:41.628Z,46.33
2023-05-13T22:50:44.436Z,52.67
2023-05-13T22:53:46.895Z,51.00
2023-05-13T22:56:49.789Z,51.33
2023-05-13T22:59:52.290Z,30.33
2023-05-13T23:02:55.258Z,48.00
2023-05-13T23:05:58.761Z,51.00
2023-05-13T23:09:01.639Z,57.00
2023-05-13T23:12:04.355Z,56.00
2023-05-13T23:15:07.767Z,51.33
2023-05-13T23:18:10.300Z,54.33
2023-05-13T23:21:13.267Z,53.00
2023-05-13T23:24:15.863Z,51.00
2023-05-13T23:27:18.686Z,56.33
2023-05-13T23:30:22.090Z,59.00
2023-05-13T23:33:24.987Z,52.33
2023-05-13T23:36:27.717Z,57.00
2023-05-13T23:39:30.499Z,60.00
2023-05-13T23:42:33.037Z,53.33
2023-05-13T23:45:35.990Z,49.67
2023-05-13T23:48:38.455Z,53.33
2023-05-13T23:51:41.357Z,49.67
2023-05-13T23:54:43.846Z,54.67
2023-05-13T23:57:47.648Z,59.67
